Latest Weather Observations for Condobolin Airport

IDN60801

Issued at 4:33 pm EST Thursday 28 July 2016 (issued every 30 minutes, with the page automatically refreshed every 10 minutes)

About weather observations | Map of weather stations | Latest weather observations for NSW | Other Formats
Station Details ID: 050137 Name: CONDOBOLIN AIRPORT AWS Lat: -33.07 Lon: 147.21 Height: 192.6 m
Data from the previous 72 hours. | See also: Recent months at Condobolin Airport
Date/Time
EST
Temp
°C
App
Temp
°C
Dew
Point
°C
Rel
Hum
%
Delta-T
°C
Wind Press
QNH
hPa
Press
MSL
hPa
Rain since
9am
mm
Dir  Spd
km/h
Gust
km/h
Spd
kts
Gust
kts
28/04:30pm 11.0 7.0 6.6 74 2.1 SW 17 24 9 13 1026.7 1027.0 0.0
28/04:00pm 11.2 7.5 6.5 73 2.2 SSW 15 22 8 12 1026.7 1027.0 0.0
28/03:30pm 11.4 7.3 6.3 71 2.4 SSW 17 20 9 11 1026.7 1027.0 0.0
28/03:00pm 11.7 7.3 6.6 71 2.4 SW 19 24 10 13 1026.5 1026.8 0.0
28/02:30pm 12.3 7.9 6.4 67 2.8 WSW 19 24 10 13 1026.7 1027.0 0.0
28/02:00pm 11.9 8.5 5.8 66 2.9 SSW 13 17 7 9 1026.9 1027.2 0.0
28/01:30pm 12.3 8.2 6.4 67 2.8 SW 17 24 9 13 1027.1 1027.4 0.0
28/01:00pm 11.5 6.9 5.4 66 2.8 SW 19 24 10 13 1027.4 1027.7 0.0
28/12:30pm 11.5 7.4 6.2 70 2.5 SW 17 22 9 12 1027.8 1028.2 0.0
28/12:00pm 12.2 8.2 6.7 69 2.6 WSW 17 24 9 13 1028.1 1028.5 0.0
28/11:30am 10.7 6.5 5.5 70 2.4 SW 17 22 9 12 1028.6 1029.0 0.0
28/11:00am 10.9 6.8 6.3 73 2.2 SSW 17 20 9 11 1028.9 1029.3 0.0
28/10:30am 10.5 5.9 6.5 76 1.9 SSW 20 26 11 14 1029.2 1029.6 0.0
28/10:00am 9.6 5.8 6.0 78 1.7 SSW 15 20 8 11 1029.0 1029.4 0.0
28/09:30am 8.5 4.7 6.0 84 1.2 SW 15 17 8 9 1028.8 1029.2 0.0
28/09:00am 7.9 4.6 6.5 91 0.6 WSW 13 15 7 8 1028.5 1028.9 0.0
28/08:30am 6.8 4.2 6.2 96 0.3 W 9 11 5 6 1028.3 1028.7 0.0
28/08:00am 5.3 2.5 5.2 99 0.0 WNW 9 11 5 6 1028.4 1028.8 0.0
28/07:30am 3.5 2.1 3.4 99 0.0 CALM 0 0 0 0 1027.9 1028.3 0.0
28/07:00am 2.9 1.3 2.6 98 0.1 CALM 0 0 0 0 1027.4 1027.7 0.0
28/06:30am 3.6 0.5 3.5 99 0.0 W 9 9 5 5 1027.2 1027.5 0.0
28/06:00am 3.6 0.5 3.5 99 0.0 WNW 9 9 5 5 1026.8 1027.1 0.0
28/05:30am 3.3 1.8 3.0 98 0.1 CALM 0 0 0 0 1026.4 1026.7 0.0
28/05:00am 4.4 3.1 4.3 99 0.0 CALM 0 0 0 0 1025.9 1026.2 0.0
28/04:30am 4.3 1.6 3.9 97 0.2 WSW 7 9 4 5 1025.4 1025.7 0.0
28/04:00am 5.2 2.3 4.6 96 0.3 W 9 11 5 6 1025.4 1025.7 0.0
28/03:30am 6.5 3.8 5.5 93 0.4 W 9 11 5 6 1025.7 1026.0 0.0
28/03:00am 7.9 4.6 6.5 91 0.6 WSW 13 17 7 9 1025.7 1026.0 0.0
28/02:30am 8.4 5.7 7.3 93 0.5 WSW 11 15 6 8 1025.9 1026.2 0.0
28/02:00am 8.3 5.2 7.4 94 0.4 WSW 13 17 7 9 1025.9 1026.2 0.0
28/01:30am 8.3 5.3 7.5 95 0.4 WSW 13 17 7 9 1025.8 1026.1 0.0
28/01:00am 8.3 5.3 7.5 95 0.4 WSW 13 17 7 9 1025.8 1026.1 0.0
28/12:30am 8.2 5.6 7.9 98 0.1 WSW 11 13 6 7 1025.6 1025.9 0.0
28/12:00am 7.6 4.9 7.3 98 0.1 W 11 13 6 7 1025.5 1025.8 0.0
 
Date/Time
EST
Temp
°C
App
Temp
°C
Dew
Point
°C
Rel
Hum
%
Delta-T
°C
Wind Press
QNH
hPa
Press
MSL
hPa
Rain since
9am
mm
Dir  Spd
km/h
Gust
km/h
Spd
kts
Gust
kts
27/11:30pm 7.3 4.5 6.9 97 0.2 WSW 11 13 6 7 1025.3 1025.6 0.0
27/11:00pm 7.6 4.9 7.2 97 0.2 WSW 11 15 6 8 1025.2 1025.5 0.0
27/10:30pm 7.9 5.6 7.3 96 0.3 WSW 9 13 5 7 1024.7 1025.1 0.0
27/10:00pm 8.4 5.5 8.0 97 0.2 SW 13 17 7 9 1025.0 1025.3 0.0
27/09:30pm 8.4 5.8 7.8 96 0.3 WSW 11 15 6 8 1025.0 1025.3 0.0
27/09:00pm 8.7 4.5 7.6 93 0.5 WSW 19 26 10 14 1024.6 1025.0 0.0
27/08:30pm 9.3 4.9 7.6 89 0.8 WSW 20 28 11 15 1024.4 1024.8 0.0
27/08:00pm 9.2 5.4 7.6 90 0.8 WSW 17 20 9 11 1024.0 1024.4 0.0
27/07:30pm 8.6 5.1 7.1 90 0.7 SW 15 19 8 10 1023.5 1023.9 0.0
27/07:00pm 9.0 5.4 6.8 86 1.0 WSW 15 17 8 9 1023.1 1023.4 0.0
27/06:30pm 10.2 6.3 7.3 82 1.4 WSW 17 22 9 12 1022.6 1022.9 0.0
27/06:00pm 10.5 7.0 7.4 81 1.5 WSW 15 20 8 11 1021.9 1022.2 0.0
27/05:30pm 11.1 7.2 7.0 76 2.0 WSW 17 28 9 15 1021.3 1021.6 0.0
27/05:00pm 12.2 7.7 6.9 70 2.6 WSW 20 24 11 13 1020.7 1021.0 0.0
27/04:30pm 12.2 8.0 7.3 72 2.4 W 19 26 10 14 1020.2 1020.5 0.0
27/04:00pm 13.5 9.1 7.5 67 3.0 W 20 28 11 15 1019.8 1020.1 0.0
27/03:30pm 13.6 7.9 6.9 64 3.3 W 26 33 14 18 1019.7 1020.0 0.0
27/03:00pm 14.1 8.9 7.4 64 3.3 W 24 33 13 18 1019.1 1019.5 0.0
27/02:30pm 14.2 8.8 8.2 67 3.0 W 26 35 14 19 1019.0 1019.4 0.0
27/02:00pm 12.8 6.7 6.8 67 2.9 W 28 35 15 19 1019.1 1019.5 0.0
27/01:30pm 12.7 6.4 7.2 69 2.7 W 30 39 16 21 1019.0 1019.4 0.0
27/01:00pm 13.3 7.1 7.7 69 2.8 W 30 39 16 21 1018.9 1019.3 0.0
27/12:30pm 12.3 6.2 6.8 69 2.7 W 28 35 15 19 1018.9 1019.3 0.0
27/12:00pm 12.5 7.3 7.2 70 2.6 WSW 24 32 13 17 1018.9 1019.3 0.0
27/11:30am 12.4 6.6 8.1 75 2.1 WSW 28 35 15 19 1018.9 1019.3 0.0
27/11:00am 12.9 7.2 8.2 73 2.3 W 28 39 15 21 1018.6 1018.9 0.0
27/10:30am 12.1 6.0 8.2 77 1.9 W 30 41 16 22 1018.6 1018.9 0.0
27/10:00am 11.4 5.5 7.3 76 2.0 W 28 39 15 21 1018.4 1018.7 0.0
27/09:30am 11.0 5.3 6.9 76 2.0 W 26 39 14 21 1018.1 1018.4 0.0
27/09:00am 11.0 6.6 7.3 78 1.8 W 20 30 11 16 1017.8 1018.1 0.2
27/08:30am 10.2 5.6 6.5 78 1.7 W 20 26 11 14 1017.3 1017.6 0.2
27/08:00am 9.7 5.0 6.2 79 1.6 W 20 26 11 14 1016.8 1017.1 0.2
27/07:30am 9.3 5.2 6.4 82 1.4 W 17 22 9 12 1016.4 1016.7 0.2
27/07:00am 9.7 5.1 6.6 81 1.5 WNW 20 28 11 15 1015.8 1016.1 0.2
27/06:30am 9.6 4.3 6.9 83 1.3 NW 24 33 13 18 1014.9 1015.2 0.2
27/06:00am 9.8 5.6 7.4 85 1.2 NW 19 24 10 13 1014.5 1014.7 0.2
27/05:30am 9.7 5.5 7.3 85 1.1 NW 19 26 10 14 1014.2 1014.4 0.2
27/05:00am 9.8 5.0 7.2 84 1.2 NW 22 28 12 15 1013.8 1014.1 0.2
27/04:38am 10.6 4.7 7.5 81 1.5 NW 28 46 15 25 1013.9 1014.2 0.2
27/04:30am 10.9 5.4 7.4 79 1.7 NW 26 35 14 19 1013.8 1014.1 0.0
27/04:00am 10.7 5.5 7.4 80 1.6 NNW 24 30 13 16 1013.4 1013.7 0.0
27/03:30am 10.4 5.6 7.3 81 1.5 NNW 22 32 12 17 1013.5 1013.8 0.0
27/03:00am 10.1 5.7 7.2 82 1.4 N 20 28 11 15 1013.8 1014.1 0.0
27/02:30am 10.4 5.6 7.3 81 1.5 N 22 28 12 15 1014.2 1014.4 0.0
27/02:00am 10.3 5.5 7.2 81 1.5 NNW 22 28 12 15 1014.3 1014.5 0.0
27/01:30am 10.3 5.9 7.4 82 1.4 NNW 20 26 11 14 1014.5 1014.7 0.0
27/01:00am 10.3 5.5 7.4 82 1.4 NNW 22 28 12 15 1014.6 1014.9 0.0
27/12:30am 9.9 5.5 7.3 84 1.2 N 20 24 11 13 1014.9 1015.2 0.0
27/12:00am 10.3 5.5 7.2 81 1.5 N 22 28 12 15 1015.0 1015.3 0.0
 
Date/Time
EST
Temp
°C
App
Temp
°C
Dew
Point
°C
Rel
Hum
%
Delta-T
°C
Wind Press
QNH
hPa
Press
MSL
hPa
Rain since
9am
mm
Dir  Spd
km/h
Gust
km/h
Spd
kts
Gust
kts
26/11:30pm 10.2 6.0 7.4 83 1.3 NW 19 28 10 15 1015.2 1015.5 0.0
26/11:00pm 11.1 6.8 8.0 81 1.5 NNW 20 30 11 16 1015.4 1015.7 0.0
26/10:30pm 10.4 7.5 8.3 87 1.0 N 13 15 7 8 1015.4 1015.7 0.0
26/10:00pm 9.8 7.9 7.6 86 1.1 NNE 7 11 4 6 1015.7 1016.0 0.0
26/09:30pm 10.4 9.5 7.6 83 1.4 SSW 2 7 1 4 1015.9 1016.2 0.0
26/09:00pm 10.6 7.6 7.8 83 1.4 N 13 17 7 9 1015.9 1016.2 0.0
26/08:30pm 10.6 9.3 7.7 82 1.4 NW 4 7 2 4 1016.3 1016.6 0.0
26/08:00pm 10.2 8.0 7.8 85 1.2 N 9 11 5 6 1016.2 1016.5 0.0
26/07:30pm 10.4 7.8 7.8 84 1.3 N 11 13 6 7 1016.1 1016.4 0.0
26/07:00pm 10.5 8.2 7.6 82 1.4 NNW 9 9 5 5 1016.1 1016.4 0.0
26/06:30pm 10.5 8.6 7.4 81 1.5 NNW 7 9 4 5 1016.1 1016.4 0.0
26/06:00pm 10.8 8.8 7.1 78 1.8 NW 7 7 4 4 1015.9 1016.2 0.0
26/05:30pm 11.6 9.1 6.7 72 2.4 WNW 9 13 5 7 1015.6 1015.9 0.0
26/05:00pm 12.6 9.3 6.4 66 3.0 W 13 19 7 10 1015.6 1015.9 0.0
26/04:30pm 13.0 9.0 6.6 65 3.1 W 17 22 9 12 1015.6 1015.9 0.0
26/04:00pm 13.3 9.3 6.6 64 3.2 NW 17 24 9 13 1015.7 1016.0 0.0
26/03:30pm 13.3 8.9 6.4 63 3.3 WNW 19 28 10 15 1015.9 1016.2 0.0
26/03:00pm 13.2 8.6 6.5 64 3.2 WNW 20 28 11 15 1016.0 1016.3 0.0
26/02:30pm 13.3 8.4 6.9 65 3.1 NW 22 28 12 15 1016.2 1016.5 0.0
26/02:00pm 13.7 8.0 6.8 63 3.4 NW 26 33 14 18 1016.6 1016.9 0.0
26/01:30pm 14.1 9.7 7.2 63 3.4 WNW 20 30 11 16 1016.9 1017.2 0.0
26/01:00pm 13.1 8.3 5.8 61 3.5 NW 20 28 11 15 1017.4 1017.7 0.0
26/12:30pm 13.5 9.1 7.3 66 3.1 NW 20 26 11 14 1018.0 1018.3 0.0
26/12:00pm 12.3 7.7 5.7 64 3.1 WNW 19 26 10 14 1018.6 1018.9 0.0
26/11:30am 11.9 7.5 4.9 62 3.2 NW 17 22 9 12 1018.9 1019.3 0.0
26/11:00am 11.8 8.4 6.1 68 2.7 WNW 13 19 7 10 1019.3 1019.7 0.0
26/10:30am 11.3 7.7 6.8 74 2.2 WNW 15 19 8 10 1019.7 1020.0 0.0
26/10:00am 10.8 7.7 7.3 79 1.7 WNW 13 17 7 9 1019.9 1020.2 0.0
26/09:30am 10.4 6.6 7.5 82 1.4 NW 17 20 9 11 1019.9 1020.2 0.0
26/09:00am 9.8 6.4 7.7 87 1.0 NW 15 19 8 10 1019.8 1020.1 0.0
26/08:30am 9.0 6.3 7.3 89 0.8 NW 11 15 6 8 1019.7 1020.0 0.0
26/08:00am 7.4 4.8 6.2 92 0.5 WNW 9 11 5 6 1019.3 1019.7 0.0
26/07:30am 6.8 3.8 6.1 95 0.3 NNW 11 13 6 7 1019.3 1019.7 0.0
26/07:00am 6.8 5.4 5.4 91 0.6 NW 2 7 1 4 1019.0 1019.4 0.0
26/06:30am 7.5 4.5 5.8 89 0.8 NW 11 13 6 7 1018.8 1019.2 0.0
26/06:00am 8.6 5.2 6.1 84 1.2 NW 13 17 7 9 1018.4 1018.7 0.0
26/05:30am 8.8 4.6 5.7 81 1.4 WNW 17 19 9 10 1018.1 1018.4 0.0
26/05:00am 9.0 4.4 5.6 79 1.6 WNW 19 24 10 13 1017.8 1018.1 0.0
26/04:30am 9.2 4.0 5.6 78 1.7 WNW 22 28 12 15 1017.6 1017.9 0.0
26/04:00am 9.3 4.4 5.1 75 1.9 WNW 20 26 11 14 1017.6 1017.9 0.0
26/03:30am 9.5 3.8 5.1 74 2.0 NW 24 33 13 18 1017.3 1017.6 0.0
26/03:00am 9.3 3.6 5.1 75 1.9 NNW 24 32 13 17 1017.2 1017.5 0.0
26/02:30am 9.3 4.1 5.3 76 1.8 NNW 22 30 12 16 1017.1 1017.4 0.0
26/02:00am 9.2 4.6 5.8 79 1.6 NNW 19 26 10 14 1017.3 1017.6 0.0
26/01:30am 8.7 5.0 6.3 85 1.1 N 15 20 8 11 1017.4 1017.7 0.0
26/01:00am 5.5 1.4 4.6 94 0.4 N 15 17 8 9 1017.4 1017.7 0.0
26/12:30am 5.6 1.9 4.6 93 0.4 N 13 17 7 9 1017.5 1017.8 0.0
26/12:00am 5.6 1.5 4.4 92 0.5 N 15 17 8 9 1017.4 1017.7 0.0
 
Date/Time
EST
Temp
°C
App
Temp
°C
Dew
Point
°C
Rel
Hum
%
Delta-T
°C
Wind Press
QNH
hPa
Press
MSL
hPa
Rain since
9am
mm
Dir  Spd
km/h
Gust
km/h
Spd
kts
Gust
kts
25/11:30pm 6.5 2.4 4.3 86 1.0 N 15 19 8 10 1017.6 1017.9 0.0
25/11:00pm 8.5 3.9 5.6 82 1.3 NNW 19 22 10 12 1017.7 1018.0 0.0
25/10:30pm 6.7 2.8 5.2 90 0.7 N 15 20 8 11 1017.9 1018.2 0.0
25/10:00pm 6.7 3.0 4.5 86 1.0 N 13 17 7 9 1018.1 1018.4 0.0
25/09:30pm 8.4 4.6 5.9 84 1.1 NNW 15 19 8 10 1018.0 1018.3 0.0
25/09:00pm 8.2 4.4 5.8 85 1.1 NW 15 19 8 10 1017.8 1018.1 0.0
25/08:30pm 6.9 4.1 5.2 89 0.8 NNW 9 13 5 7 1017.5 1017.8 0.0
25/08:00pm 7.7 3.9 5.8 88 0.9 N 15 17 8 9 1017.2 1017.5 0.0
25/07:30pm 8.2 4.1 6.0 86 1.0 N 17 20 9 11 1016.9 1017.2 0.0
25/07:00pm 8.0 3.9 6.1 88 0.9 N 17 19 9 10 1016.6 1016.9 0.0
25/06:30pm 8.1 4.0 6.2 88 0.9 N 17 19 9 10 1016.2 1016.5 0.0
25/06:00pm 8.1 4.4 6.2 88 0.9 N 15 17 8 9 1016.2 1016.5 0.0
25/05:30pm 8.8 5.5 6.3 84 1.2 N 13 15 7 8 1016.2 1016.5 0.0
25/05:00pm 10.8 7.7 7.1 78 1.8 N 13 17 7 9 1016.3 1016.6 0.0

Other Formats:

Comma delimited format used in spreadsheet applications
http://www.bom.gov.au/fwo/IDN60801/IDN60801.95708.axf

JavaScript Object Notation format (JSON) in row-major order
http://www.bom.gov.au/fwo/IDN60801/IDN60801.95708.json